Terminal Aerodrome Forecast
Issued by NWS

Current Version | Previous Version | Text Only | Print | Product List | Glossary On
Versions: 1 2 3 4 5 6 7 8 9 10 11 12 13 14 15 16 17 18
000
FTUS44 KJAN 230549
TAFHKS
TAF
KHKS 230549Z 2306/2406 05004KT 6SM -RA BR SCT015 BKN025
     FM231000 VRB03KT 6SM BR SCT008 BKN015
     FM231600 34006KT P6SM BKN035=

USA.gov is the U.S. government's official web portal to all federal, state and local government web resources and services.